Portada
METAR-TAF:

METAR-TAF

Aeropuertos :

Aeropuerto de Lübeck

Lubeca, Alemania

latitud: 53-49N, longitud: 010-42E, altitud: 14 m

Observación

El informe se hizo hace 8 horas y 41 minutos, a las 18:50 UTC
Viento 7 kt del este-noreste
Temperatura 17°C
Humedad 52%
Presión 1025 hPa
Visibilidad 10 km o más
sin nubes por debajo de 1500 m y sin presencia de cumulonimbus.

METAR: EDHL 311850Z 07007KT CAVOK 17/07 Q1025

Hora: 05:31 (03:31 UTC)

Pronóstico

El informe se hizo hace 10 horas y 31 minutos, a las 17:00 UTC
Pronóstico válido del 31 a las 18 UTC al 31 a las 21 UTC
Viento 12 kt del noreste
Visibilidad 10 km o más
sin nubes por debajo de 1500 m y sin presencia de cumulonimbus.
Evolucionando progresivamente
del 31 a las 18 UTC al 31 a las 20 UTC
Viento 7 kt del este-noreste

TAF: EDHL 311700Z 3118/3121 05012KT CAVOK BECMG 3118/3120 06007KT

Observaciones y pronósticos meteorológicos de más de 4000 aeropuertos (mensajes METAR y TAF).

Los puntos amarillos y rojos representan las estaciones disponibles.

Ponga el ratón en el punto deseado para ver el nombre de la estación.

Haga clic para ver las observaciones y los pronósticos meteorológicos.

Para cambiar el mapa : haga clic en los botones verdes con una cruz de color negro para hacer un zoom, en el botón verde con un guión para alejar o en las flechas verdes para mapas adyacentes.


METAR-TAF: